sensor_id;sensor_type;location;lat;lon;timestamp;temperature;humidity
14985;DHT22;7588;62.368;25.902;2022-08-26T00:02:02;8.70;99.90
14985;DHT22;7588;62.368;25.902;2022-08-26T00:04:28;8.70;99.90
14985;DHT22;7588;62.368;25.902;2022-08-26T00:06:54;8.70;99.90
14985;DHT22;7588;62.368;25.902;2022-08-26T00:09:20;8.70;99.90
14985;DHT22;7588;62.368;25.902;2022-08-26T00:11:46;8.70;99.90
14985;DHT22;7588;62.368;25.902;2022-08-26T00:14:13;8.70;99.90
14985;DHT22;7588;62.368;25.902;2022-08-26T00:16:38;8.60;99.90
14985;DHT22;7588;62.368;25.902;2022-08-26T00:19:04;8.60;99.90
14985;DHT22;7588;62.368;25.902;2022-08-26T00:21:30;8.50;99.90
14985;DHT22;7588;62.368;25.902;2022-08-26T00:23:56;8.50;99.90
14985;DHT22;7588;62.368;25.902;2022-08-26T00:26:21;8.50;99.90
14985;DHT22;7588;62.368;25.902;2022-08-26T00:28:47;8.50;99.90
14985;DHT22;7588;62.368;25.902;2022-08-26T00:31:14;8.50;99.90
14985;DHT22;7588;62.368;25.902;2022-08-26T00:33:40;8.50;99.90
14985;DHT22;7588;62.368;25.902;2022-08-26T00:36:07;8.50;99.90
14985;DHT22;7588;62.368;25.902;2022-08-26T00:38:35;8.50;99.90
14985;DHT22;7588;62.368;25.902;2022-08-26T00:41:02;8.50;99.90
14985;DHT22;7588;62.368;25.902;2022-08-26T00:43:32;8.50;99.90
14985;DHT22;7588;62.368;25.902;2022-08-26T00:46:07;8.50;99.90
14985;DHT22;7588;62.368;25.902;2022-08-26T00:48:35;8.40;99.90
14985;DHT22;7588;62.368;25.902;2022-08-26T00:51:14;8.40;99.90
14985;DHT22;7588;62.368;25.902;2022-08-26T00:53:47;8.40;99.90
14985;DHT22;7588;62.368;25.902;2022-08-26T00:57:06;8.40;99.90
14985;DHT22;7588;62.368;25.902;2022-08-26T00:59:12;8.30;99.90
14985;DHT22;7588;62.368;25.902;2022-08-26T01:01:41;8.30;99.90
14985;DHT22;7588;62.368;25.902;2022-08-26T01:04:09;8.20;99.90
14985;DHT22;7588;62.368;25.902;2022-08-26T01:06:36;8.20;99.90
14985;DHT22;7588;62.368;25.902;2022-08-26T01:09:02;8.20;99.90
14985;DHT22;7588;62.368;25.902;2022-08-26T01:11:28;8.20;99.90
14985;DHT22;7588;62.368;25.902;2022-08-26T01:13:59;8.20;99.90
14985;DHT22;7588;62.368;25.902;2022-08-26T01:16:27;8.20;99.90
14985;DHT22;7588;62.368;25.902;2022-08-26T01:18:59;8.10;99.90
14985;DHT22;7588;62.368;25.902;2022-08-26T01:21:34;8.10;99.90
14985;DHT22;7588;62.368;25.902;2022-08-26T01:24:04;8.10;99.90
14985;DHT22;7588;62.368;25.902;2022-08-26T01:26:39;8.10;99.90
14985;DHT22;7588;62.368;25.902;2022-08-26T01:29:09;8.00;99.90
14985;DHT22;7588;62.368;25.902;2022-08-26T01:31:51;8.00;99.90
14985;DHT22;7588;62.368;25.902;2022-08-26T01:34:27;8.00;99.90
14985;DHT22;7588;62.368;25.902;2022-08-26T01:37:04;7.90;99.90
14985;DHT22;7588;62.368;25.902;2022-08-26T01:39:32;7.90;99.90
14985;DHT22;7588;62.368;25.902;2022-08-26T01:42:00;7.90;99.90
14985;DHT22;7588;62.368;25.902;2022-08-26T01:44:30;7.90;99.90
14985;DHT22;7588;62.368;25.902;2022-08-26T01:46:57;7.90;99.90
14985;DHT22;7588;62.368;25.902;2022-08-26T01:49:24;7.90;99.90
14985;DHT22;7588;62.368;25.902;2022-08-26T01:51:53;7.90;99.90
14985;DHT22;7588;62.368;25.902;2022-08-26T01:54:20;7.90;99.90
14985;DHT22;7588;62.368;25.902;2022-08-26T01:56:46;8.00;99.90
14985;DHT22;7588;62.368;25.902;2022-08-26T01:59:14;7.90;99.90
14985;DHT22;7588;62.368;25.902;2022-08-26T02:01:41;7.90;99.90
14985;DHT22;7588;62.368;25.902;2022-08-26T02:04:24;7.90;99.90
14985;DHT22;7588;62.368;25.902;2022-08-26T02:06:52;7.90;99.90
14985;DHT22;7588;62.368;25.902;2022-08-26T02:09:19;7.80;99.90
14985;DHT22;7588;62.368;25.902;2022-08-26T02:11:46;7.80;99.90
14985;DHT22;7588;62.368;25.902;2022-08-26T02:14:19;7.80;99.90
14985;DHT22;7588;62.368;25.902;2022-08-26T02:16:48;7.80;99.90
14985;DHT22;7588;62.368;25.902;2022-08-26T02:19:23;7.80;99.90
14985;DHT22;7588;62.368;25.902;2022-08-26T02:21:51;7.70;99.90
14985;DHT22;7588;62.368;25.902;2022-08-26T02:24:25;7.80;99.90
14985;DHT22;7588;62.368;25.902;2022-08-26T02:26:52;7.70;99.90
14985;DHT22;7588;62.368;25.902;2022-08-26T02:29:25;7.70;99.90
14985;DHT22;7588;62.368;25.902;2022-08-26T02:31:53;7.70;99.90
14985;DHT22;7588;62.368;25.902;2022-08-26T02:34:27;7.60;99.90
14985;DHT22;7588;62.368;25.902;2022-08-26T02:36:55;7.70;99.90
14985;DHT22;7588;62.368;25.902;2022-08-26T02:39:22;7.60;99.90
14985;DHT22;7588;62.368;25.902;2022-08-26T02:41:48;7.70;99.90
14985;DHT22;7588;62.368;25.902;2022-08-26T02:44:14;7.70;99.90
14985;DHT22;7588;62.368;25.902;2022-08-26T02:46:40;7.70;99.90
14985;DHT22;7588;62.368;25.902;2022-08-26T02:49:06;7.70;99.90
14985;DHT22;7588;62.368;25.902;2022-08-26T02:51:32;7.60;99.90
14985;DHT22;7588;62.368;25.902;2022-08-26T02:53:58;7.60;99.90
14985;DHT22;7588;62.368;25.902;2022-08-26T02:56:23;7.60;99.90
14985;DHT22;7588;62.368;25.902;2022-08-26T02:58:49;7.60;99.90
14985;DHT22;7588;62.368;25.902;2022-08-26T03:01:23;7.60;99.90
14985;DHT22;7588;62.368;25.902;2022-08-26T03:03:49;7.60;99.90
14985;DHT22;7588;62.368;25.902;2022-08-26T03:06:19;7.50;99.90
14985;DHT22;7588;62.368;25.902;2022-08-26T03:08:45;7.50;99.90
14985;DHT22;7588;62.368;25.902;2022-08-26T03:11:11;7.60;99.90
14985;DHT22;7588;62.368;25.902;2022-08-26T03:13:38;7.50;99.90
14985;DHT22;7588;62.368;25.902;2022-08-26T03:16:04;7.60;99.90
14985;DHT22;7588;62.368;25.902;2022-08-26T03:18:30;7.60;99.90
14985;DHT22;7588;62.368;25.902;2022-08-26T03:20:55;7.60;99.90
14985;DHT22;7588;62.368;25.902;2022-08-26T03:23:21;7.60;99.90
14985;DHT22;7588;62.368;25.902;2022-08-26T03:25:50;7.60;99.90
14985;DHT22;7588;62.368;25.902;2022-08-26T03:28:16;7.60;99.90
14985;DHT22;7588;62.368;25.902;2022-08-26T03:30:42;7.70;99.90
14985;DHT22;7588;62.368;25.902;2022-08-26T03:33:10;7.70;99.90
14985;DHT22;7588;62.368;25.902;2022-08-26T03:35:37;7.80;99.90
14985;DHT22;7588;62.368;25.902;2022-08-26T03:38:04;7.80;99.90
14985;DHT22;7588;62.368;25.902;2022-08-26T03:40:33;7.90;99.90
14985;DHT22;7588;62.368;25.902;2022-08-26T03:43:00;7.90;99.90
14985;DHT22;7588;62.368;25.902;2022-08-26T03:45:26;7.90;99.90
14985;DHT22;7588;62.368;25.902;2022-08-26T03:47:55;8.00;99.90
14985;DHT22;7588;62.368;25.902;2022-08-26T03:50:21;8.00;99.90
14985;DHT22;7588;62.368;25.902;2022-08-26T03:52:48;8.00;99.90
14985;DHT22;7588;62.368;25.902;2022-08-26T03:55:15;8.10;99.90
14985;DHT22;7588;62.368;25.902;2022-08-26T03:57:41;8.10;99.90
14985;DHT22;7588;62.368;25.902;2022-08-26T04:00:10;8.10;99.90
14985;DHT22;7588;62.368;25.902;2022-08-26T04:02:39;8.20;99.90
14985;DHT22;7588;62.368;25.902;2022-08-26T04:05:05;8.20;99.90
14985;DHT22;7588;62.368;25.902;2022-08-26T04:07:31;8.30;99.90
14985;DHT22;7588;62.368;25.902;2022-08-26T04:09:57;8.30;99.90
14985;DHT22;7588;62.368;25.902;2022-08-26T04:12:23;8.30;99.90
14985;DHT22;7588;62.368;25.902;2022-08-26T04:14:51;8.40;99.90
14985;DHT22;7588;62.368;25.902;2022-08-26T04:17:17;8.40;99.90
14985;DHT22;7588;62.368;25.902;2022-08-26T04:19:43;8.40;99.90
14985;DHT22;7588;62.368;25.902;2022-08-26T04:22:09;8.50;99.90
14985;DHT22;7588;62.368;25.902;2022-08-26T04:24:35;8.50;99.90
14985;DHT22;7588;62.368;25.902;2022-08-26T04:27:07;8.60;99.90
14985;DHT22;7588;62.368;25.902;2022-08-26T04:29:33;8.60;99.90
14985;DHT22;7588;62.368;25.902;2022-08-26T04:31:59;8.70;99.90
14985;DHT22;7588;62.368;25.902;2022-08-26T04:34:26;8.70;99.90
14985;DHT22;7588;62.368;25.902;2022-08-26T04:36:53;8.80;99.90
14985;DHT22;7588;62.368;25.902;2022-08-26T04:39:20;8.90;99.90
14985;DHT22;7588;62.368;25.902;2022-08-26T04:41:47;9.00;99.90
14985;DHT22;7588;62.368;25.902;2022-08-26T04:44:14;9.10;99.90
14985;DHT22;7588;62.368;25.902;2022-08-26T04:46:40;9.30;99.90
14985;DHT22;7588;62.368;25.902;2022-08-26T04:49:07;9.40;99.90
14985;DHT22;7588;62.368;25.902;2022-08-26T04:51:34;9.60;99.90
14985;DHT22;7588;62.368;25.902;2022-08-26T04:54:01;9.80;99.90
14985;DHT22;7588;62.368;25.902;2022-08-26T04:56:30;9.90;99.90
14985;DHT22;7588;62.368;25.902;2022-08-26T04:58:57;10.10;99.90
14985;DHT22;7588;62.368;25.902;2022-08-26T05:01:23;10.30;99.90
14985;DHT22;7588;62.368;25.902;2022-08-26T05:03:49;10.40;99.90
14985;DHT22;7588;62.368;25.902;2022-08-26T05:06:15;10.60;99.90
14985;DHT22;7588;62.368;25.902;2022-08-26T05:08:41;10.80;99.90
14985;DHT22;7588;62.368;25.902;2022-08-26T05:11:07;11.00;99.90
14985;DHT22;7588;62.368;25.902;2022-08-26T05:13:34;11.10;99.90
14985;DHT22;7588;62.368;25.902;2022-08-26T05:16:04;11.20;99.90
14985;DHT22;7588;62.368;25.902;2022-08-26T05:18:31;11.30;99.90
14985;DHT22;7588;62.368;25.902;2022-08-26T05:21:00;11.40;99.90
14985;DHT22;7588;62.368;25.902;2022-08-26T05:23:26;11.60;99.90
14985;DHT22;7588;62.368;25.902;2022-08-26T05:25:54;11.80;99.90
14985;DHT22;7588;62.368;25.902;2022-08-26T05:28:20;11.90;99.90
14985;DHT22;7588;62.368;25.902;2022-08-26T05:30:48;12.10;99.90
14985;DHT22;7588;62.368;25.902;2022-08-26T05:33:14;12.20;99.90
14985;DHT22;7588;62.368;25.902;2022-08-26T05:35:42;12.40;99.90
14985;DHT22;7588;62.368;25.902;2022-08-26T05:38:10;12.50;99.90
14985;DHT22;7588;62.368;25.902;2022-08-26T05:40:44;12.60;99.90
14985;DHT22;7588;62.368;25.902;2022-08-26T05:43:12;12.70;99.90
14985;DHT22;7588;62.368;25.902;2022-08-26T05:45:43;12.80;99.90
14985;DHT22;7588;62.368;25.902;2022-08-26T05:48:10;12.90;99.90
14985;DHT22;7588;62.368;25.902;2022-08-26T05:50:42;13.20;99.90
14985;DHT22;7588;62.368;25.902;2022-08-26T05:53:09;13.30;99.90
14985;DHT22;7588;62.368;25.902;2022-08-26T05:55:41;13.50;99.90
14985;DHT22;7588;62.368;25.902;2022-08-26T05:58:08;13.60;99.90
14985;DHT22;7588;62.368;25.902;2022-08-26T06:00:34;13.80;99.90
14985;DHT22;7588;62.368;25.902;2022-08-26T06:02:59;13.90;99.90
14985;DHT22;7588;62.368;25.902;2022-08-26T06:05:25;14.00;99.90
14985;DHT22;7588;62.368;25.902;2022-08-26T06:07:51;14.10;99.90
14985;DHT22;7588;62.368;25.902;2022-08-26T06:10:41;14.20;99.90
14985;DHT22;7588;62.368;25.902;2022-08-26T06:13:07;14.40;99.90
14985;DHT22;7588;62.368;25.902;2022-08-26T06:15:47;14.60;99.90
14985;DHT22;7588;62.368;25.902;2022-08-26T06:18:17;14.70;99.90
14985;DHT22;7588;62.368;25.902;2022-08-26T06:20:45;14.80;99.90
14985;DHT22;7588;62.368;25.902;2022-08-26T06:23:12;14.90;99.90
14985;DHT22;7588;62.368;25.902;2022-08-26T06:25:57;15.00;99.90
14985;DHT22;7588;62.368;25.902;2022-08-26T06:28:24;15.00;99.90
14985;DHT22;7588;62.368;25.902;2022-08-26T06:30:50;15.10;99.90
14985;DHT22;7588;62.368;25.902;2022-08-26T06:33:17;15.20;99.90
14985;DHT22;7588;62.368;25.902;2022-08-26T06:35:43;15.30;99.90
14985;DHT22;7588;62.368;25.902;2022-08-26T06:38:11;15.40;99.90
14985;DHT22;7588;62.368;25.902;2022-08-26T06:40:51;15.40;99.90
14985;DHT22;7588;62.368;25.902;2022-08-26T06:43:20;15.70;99.90
14985;DHT22;7588;62.368;25.902;2022-08-26T06:45:47;15.80;99.90
14985;DHT22;7588;62.368;25.902;2022-08-26T06:48:15;15.80;99.90
14985;DHT22;7588;62.368;25.902;2022-08-26T06:50:42;15.90;99.90
14985;DHT22;7588;62.368;25.902;2022-08-26T06:53:08;16.30;99.90
14985;DHT22;7588;62.368;25.902;2022-08-26T06:55:41;17.00;99.90
14985;DHT22;7588;62.368;25.902;2022-08-26T06:58:08;18.10;99.90
14985;DHT22;7588;62.368;25.902;2022-08-26T07:00:35;19.10;99.90
14985;DHT22;7588;62.368;25.902;2022-08-26T07:03:02;19.80;99.90
14985;DHT22;7588;62.368;25.902;2022-08-26T07:05:28;20.70;99.90
14985;DHT22;7588;62.368;25.902;2022-08-26T07:07:54;20.80;99.90
14985;DHT22;7588;62.368;25.902;2022-08-26T07:10:20;21.20;99.90
14985;DHT22;7588;62.368;25.902;2022-08-26T07:12:45;21.60;99.90
14985;DHT22;7588;62.368;25.902;2022-08-26T07:15:13;21.70;99.90
14985;DHT22;7588;62.368;25.902;2022-08-26T07:17:39;21.80;99.90
14985;DHT22;7588;62.368;25.902;2022-08-26T07:20:05;22.20;99.90
14985;DHT22;7588;62.368;25.902;2022-08-26T07:22:36;22.40;99.90
14985;DHT22;7588;62.368;25.902;2022-08-26T07:25:04;22.50;99.90
14985;DHT22;7588;62.368;25.902;2022-08-26T07:27:33;22.70;99.90
14985;DHT22;7588;62.368;25.902;2022-08-26T07:29:59;23.10;99.90
14985;DHT22;7588;62.368;25.902;2022-08-26T07:32:25;23.30;99.90
14985;DHT22;7588;62.368;25.902;2022-08-26T07:34:51;23.40;99.90
14985;DHT22;7588;62.368;25.902;2022-08-26T07:37:18;23.70;99.90
14985;DHT22;7588;62.368;25.902;2022-08-26T07:39:44;23.60;99.90
14985;DHT22;7588;62.368;25.902;2022-08-26T07:42:12;23.80;99.90
14985;DHT22;7588;62.368;25.902;2022-08-26T07:44:39;23.80;99.90
14985;DHT22;7588;62.368;25.902;2022-08-26T07:47:07;24.10;99.90
14985;DHT22;7588;62.368;25.902;2022-08-26T07:49:33;24.10;99.90
14985;DHT22;7588;62.368;25.902;2022-08-26T07:51:59;24.10;99.80
14985;DHT22;7588;62.368;25.902;2022-08-26T07:54:25;24.10;98.80
14985;DHT22;7588;62.368;25.902;2022-08-26T07:56:51;24.30;99.60
14985;DHT22;7588;62.368;25.902;2022-08-26T07:59:18;24.20;99.90
14985;DHT22;7588;62.368;25.902;2022-08-26T08:01:44;24.50;99.60
14985;DHT22;7588;62.368;25.902;2022-08-26T08:04:15;24.40;99.90
14985;DHT22;7588;62.368;25.902;2022-08-26T08:06:42;24.40;97.90
14985;DHT22;7588;62.368;25.902;2022-08-26T08:09:09;24.60;97.90
14985;DHT22;7588;62.368;25.902;2022-08-26T08:11:35;24.70;97.90
14985;DHT22;7588;62.368;25.902;2022-08-26T08:14:01;24.90;98.80
14985;DHT22;7588;62.368;25.902;2022-08-26T08:16:28;24.60;98.70
14985;DHT22;7588;62.368;25.902;2022-08-26T08:18:54;24.60;97.70
14985;DHT22;7588;62.368;25.902;2022-08-26T08:21:22;25.00;97.30
14985;DHT22;7588;62.368;25.902;2022-08-26T08:23:48;24.90;98.30
14985;DHT22;7588;62.368;25.902;2022-08-26T08:26:14;25.30;98.10
14985;DHT22;7588;62.368;25.902;2022-08-26T08:28:40;24.60;96.10
14985;DHT22;7588;62.368;25.902;2022-08-26T08:31:05;23.90;96.80
14985;DHT22;7588;62.368;25.902;2022-08-26T08:33:31;24.20;97.30
14985;DHT22;7588;62.368;25.902;2022-08-26T08:35:58;24.60;97.20
14985;DHT22;7588;62.368;25.902;2022-08-26T08:38:25;24.80;95.40
14985;DHT22;7588;62.368;25.902;2022-08-26T08:40:51;24.90;94.60
14985;DHT22;7588;62.368;25.902;2022-08-26T08:45:59;24.40;96.50
14985;DHT22;7588;62.368;25.902;2022-08-26T08:48:30;24.50;95.90
14985;DHT22;7588;62.368;25.902;2022-08-26T08:51:10;24.60;94.60
14985;DHT22;7588;62.368;25.902;2022-08-26T08:53:41;24.80;93.60
14985;DHT22;7588;62.368;25.902;2022-08-26T08:56:33;25.10;93.40
14985;DHT22;7588;62.368;25.902;2022-08-26T08:59:23;25.10;92.40
14985;DHT22;7588;62.368;25.902;2022-08-26T09:07:26;25.60;93.80
14985;DHT22;7588;62.368;25.902;2022-08-26T09:12:43;25.70;85.50
14985;DHT22;7588;62.368;25.902;2022-08-26T09:21:00;24.80;87.00
14985;DHT22;7588;62.368;25.902;2022-08-26T09:23:32;24.60;87.20
14985;DHT22;7588;62.368;25.902;2022-08-26T09:26:02;24.70;88.70
14985;DHT22;7588;62.368;25.902;2022-08-26T09:28:30;25.00;87.70
14985;DHT22;7588;62.368;25.902;2022-08-26T09:31:00;25.30;87.00
14985;DHT22;7588;62.368;25.902;2022-08-26T09:33:29;25.50;86.90
14985;DHT22;7588;62.368;25.902;2022-08-26T09:38:37;25.90;86.60
14985;DHT22;7588;62.368;25.902;2022-08-26T09:41:22;25.70;84.70
14985;DHT22;7588;62.368;25.902;2022-08-26T09:46:38;24.80;90.20
14985;DHT22;7588;62.368;25.902;2022-08-26T09:49:22;25.10;90.90
14985;DHT22;7588;62.368;25.902;2022-08-26T09:52:03;25.50;90.80
14985;DHT22;7588;62.368;25.902;2022-08-26T09:54:28;26.00;85.70
14985;DHT22;7588;62.368;25.902;2022-08-26T09:57:13;26.30;88.70
14985;DHT22;7588;62.368;25.902;2022-08-26T09:59:39;26.50;88.60
14985;DHT22;7588;62.368;25.902;2022-08-26T10:04:57;26.80;79.30
14985;DHT22;7588;62.368;25.902;2022-08-26T10:07:40;26.90;82.90
14985;DHT22;7588;62.368;25.902;2022-08-26T10:10:11;26.90;78.10
14985;DHT22;7588;62.368;25.902;2022-08-26T10:12:47;26.90;82.10
14985;DHT22;7588;62.368;25.902;2022-08-26T10:15:14;26.70;80.00
14985;DHT22;7588;62.368;25.902;2022-08-26T10:18:03;26.90;78.80
14985;DHT22;7588;62.368;25.902;2022-08-26T10:20:45;26.50;77.10
14985;DHT22;7588;62.368;25.902;2022-08-26T10:23:22;26.50;76.30
14985;DHT22;7588;62.368;25.902;2022-08-26T10:26:05;26.70;85.80
14985;DHT22;7588;62.368;25.902;2022-08-26T10:31:54;26.90;79.60
14985;DHT22;7588;62.368;25.902;2022-08-26T10:34:20;26.90;77.80
14985;DHT22;7588;62.368;25.902;2022-08-26T10:37:07;27.30;76.90
14985;DHT22;7588;62.368;25.902;2022-08-26T10:39:50;26.70;78.30
14985;DHT22;7588;62.368;25.902;2022-08-26T10:45:19;26.90;78.00
14985;DHT22;7588;62.368;25.902;2022-08-26T10:47:49;27.00;75.70
14985;DHT22;7588;62.368;25.902;2022-08-26T10:50:16;27.00;70.70
14985;DHT22;7588;62.368;25.902;2022-08-26T10:53:04;26.60;73.90
14985;DHT22;7588;62.368;25.902;2022-08-26T10:56:22;26.30;69.40
14985;DHT22;7588;62.368;25.902;2022-08-26T10:58:35;26.10;72.80
14985;DHT22;7588;62.368;25.902;2022-08-26T11:01:15;26.20;71.30
14985;DHT22;7588;62.368;25.902;2022-08-26T11:04:28;26.20;74.40
14985;DHT22;7588;62.368;25.902;2022-08-26T11:09:53;26.90;71.30
14985;DHT22;7588;62.368;25.902;2022-08-26T11:15:07;27.10;72.00
14985;DHT22;7588;62.368;25.902;2022-08-26T11:22:51;26.70;69.70
14985;DHT22;7588;62.368;25.902;2022-08-26T11:25:21;26.70;74.90
14985;DHT22;7588;62.368;25.902;2022-08-26T11:40:24;27.40;67.30
14985;DHT22;7588;62.368;25.902;2022-08-26T11:42:54;27.60;73.20
14985;DHT22;7588;62.368;25.902;2022-08-26T11:48:17;28.60;64.80
14985;DHT22;7588;62.368;25.902;2022-08-26T11:50:58;28.20;65.20
14985;DHT22;7588;62.368;25.902;2022-08-26T11:53:25;28.10;61.10
14985;DHT22;7588;62.368;25.902;2022-08-26T11:55:53;28.10;61.80
14985;DHT22;7588;62.368;25.902;2022-08-26T11:58:20;27.80;67.60
14985;DHT22;7588;62.368;25.902;2022-08-26T12:00:59;27.70;66.90
14985;DHT22;7588;62.368;25.902;2022-08-26T12:03:37;27.70;68.10
14985;DHT22;7588;62.368;25.902;2022-08-26T12:06:20;27.70;63.30
14985;DHT22;7588;62.368;25.902;2022-08-26T12:08:47;27.70;68.90
14985;DHT22;7588;62.368;25.902;2022-08-26T12:11:27;28.00;66.20
14985;DHT22;7588;62.368;25.902;2022-08-26T12:16:31;28.30;65.10
14985;DHT22;7588;62.368;25.902;2022-08-26T12:18:57;28.80;61.50
14985;DHT22;7588;62.368;25.902;2022-08-26T12:21:28;29.20;62.70
14985;DHT22;7588;62.368;25.902;2022-08-26T12:23:57;28.90;60.60
14985;DHT22;7588;62.368;25.902;2022-08-26T12:31:32;29.00;63.70
14985;DHT22;7588;62.368;25.902;2022-08-26T12:34:00;28.60;56.70
14985;DHT22;7588;62.368;25.902;2022-08-26T12:36:30;28.40;60.40
14985;DHT22;7588;62.368;25.902;2022-08-26T12:39:05;28.60;55.90
14985;DHT22;7588;62.368;25.902;2022-08-26T12:41:49;28.20;56.20
14985;DHT22;7588;62.368;25.902;2022-08-26T12:47:16;28.70;58.60
14985;DHT22;7588;62.368;25.902;2022-08-26T12:49:48;28.60;59.40
14985;DHT22;7588;62.368;25.902;2022-08-26T12:52:23;28.80;58.10
14985;DHT22;7588;62.368;25.902;2022-08-26T12:55:10;28.80;57.60
14985;DHT22;7588;62.368;25.902;2022-08-26T12:57:42;28.50;63.30
14985;DHT22;7588;62.368;25.902;2022-08-26T13:02:50;28.30;58.10
14985;DHT22;7588;62.368;25.902;2022-08-26T13:05:25;28.30;59.80
14985;DHT22;7588;62.368;25.902;2022-08-26T13:08:25;28.00;61.40
14985;DHT22;7588;62.368;25.902;2022-08-26T13:11:08;28.20;61.00
14985;DHT22;7588;62.368;25.902;2022-08-26T13:13:35;28.10;59.10
14985;DHT22;7588;62.368;25.902;2022-08-26T13:16:01;27.70;60.50
14985;DHT22;7588;62.368;25.902;2022-08-26T13:18:27;27.40;61.10
14985;DHT22;7588;62.368;25.902;2022-08-26T13:20:57;27.00;60.70
14985;DHT22;7588;62.368;25.902;2022-08-26T13:23:23;26.20;62.20
14985;DHT22;7588;62.368;25.902;2022-08-26T13:25:50;25.60;65.80
14985;DHT22;7588;62.368;25.902;2022-08-26T13:28:16;25.10;66.90
14985;DHT22;7588;62.368;25.902;2022-08-26T13:30:44;25.00;70.20
14985;DHT22;7588;62.368;25.902;2022-08-26T13:33:11;24.60;68.30
14985;DHT22;7588;62.368;25.902;2022-08-26T13:35:37;24.50;64.00
14985;DHT22;7588;62.368;25.902;2022-08-26T13:38:03;24.30;66.80
14985;DHT22;7588;62.368;25.902;2022-08-26T13:40:29;24.00;65.60
14985;DHT22;7588;62.368;25.902;2022-08-26T13:42:55;23.90;66.50
14985;DHT22;7588;62.368;25.902;2022-08-26T13:45:21;23.80;67.30
14985;DHT22;7588;62.368;25.902;2022-08-26T13:47:46;23.50;68.30
14985;DHT22;7588;62.368;25.902;2022-08-26T13:50:12;23.40;71.00
14985;DHT22;7588;62.368;25.902;2022-08-26T13:52:38;23.30;70.30
14985;DHT22;7588;62.368;25.902;2022-08-26T13:55:04;23.30;68.90
14985;DHT22;7588;62.368;25.902;2022-08-26T13:57:31;23.20;70.10
14985;DHT22;7588;62.368;25.902;2022-08-26T13:59:57;22.90;71.10
14985;DHT22;7588;62.368;25.902;2022-08-26T14:02:24;22.80;70.70
14985;DHT22;7588;62.368;25.902;2022-08-26T14:04:50;22.60;71.20
14985;DHT22;7588;62.368;25.902;2022-08-26T14:07:18;22.50;71.00
14985;DHT22;7588;62.368;25.902;2022-08-26T14:09:43;22.50;70.40
14985;DHT22;7588;62.368;25.902;2022-08-26T14:12:09;22.30;74.20
14985;DHT22;7588;62.368;25.902;2022-08-26T14:14:35;22.20;72.70
14985;DHT22;7588;62.368;25.902;2022-08-26T14:17:01;22.20;74.40
14985;DHT22;7588;62.368;25.902;2022-08-26T14:19:28;22.10;72.30
14985;DHT22;7588;62.368;25.902;2022-08-26T14:21:54;22.00;73.50
14985;DHT22;7588;62.368;25.902;2022-08-26T14:24:20;21.90;73.80
14985;DHT22;7588;62.368;25.902;2022-08-26T14:26:46;21.80;74.20
14985;DHT22;7588;62.368;25.902;2022-08-26T14:29:13;21.70;75.60
14985;DHT22;7588;62.368;25.902;2022-08-26T14:31:38;21.60;76.10
14985;DHT22;7588;62.368;25.902;2022-08-26T14:34:05;21.70;76.60
14985;DHT22;7588;62.368;25.902;2022-08-26T14:36:32;21.70;75.90
14985;DHT22;7588;62.368;25.902;2022-08-26T14:39:03;21.70;78.20
14985;DHT22;7588;62.368;25.902;2022-08-26T14:41:30;21.60;78.40
14985;DHT22;7588;62.368;25.902;2022-08-26T14:44:01;21.50;77.80
14985;DHT22;7588;62.368;25.902;2022-08-26T14:46:29;21.50;79.40
14985;DHT22;7588;62.368;25.902;2022-08-26T14:48:57;21.50;79.30
14985;DHT22;7588;62.368;25.902;2022-08-26T14:51:23;21.50;80.00
14985;DHT22;7588;62.368;25.902;2022-08-26T14:53:50;21.50;83.40
14985;DHT22;7588;62.368;25.902;2022-08-26T14:56:37;21.50;81.30
14985;DHT22;7588;62.368;25.902;2022-08-26T14:59:03;21.50;82.10
14985;DHT22;7588;62.368;25.902;2022-08-26T15:01:28;21.60;83.30
14985;DHT22;7588;62.368;25.902;2022-08-26T15:03:57;21.50;84.60
14985;DHT22;7588;62.368;25.902;2022-08-26T15:06:23;21.50;86.30
14985;DHT22;7588;62.368;25.902;2022-08-26T15:08:49;21.30;87.30
14985;DHT22;7588;62.368;25.902;2022-08-26T15:11:15;21.20;88.60
14985;DHT22;7588;62.368;25.902;2022-08-26T15:13:44;21.20;90.10
14985;DHT22;7588;62.368;25.902;2022-08-26T15:16:09;21.20;88.50
14985;DHT22;7588;62.368;25.902;2022-08-26T15:18:35;21.20;89.40
14985;DHT22;7588;62.368;25.902;2022-08-26T15:21:03;21.30;90.00
14985;DHT22;7588;62.368;25.902;2022-08-26T15:23:28;21.20;89.90
14985;DHT22;7588;62.368;25.902;2022-08-26T15:25:54;21.20;89.80
14985;DHT22;7588;62.368;25.902;2022-08-26T15:28:20;21.10;90.00
14985;DHT22;7588;62.368;25.902;2022-08-26T15:30:46;21.10;90.80
14985;DHT22;7588;62.368;25.902;2022-08-26T15:33:12;21.00;91.30
14985;DHT22;7588;62.368;25.902;2022-08-26T15:35:38;21.00;91.20
14985;DHT22;7588;62.368;25.902;2022-08-26T15:38:04;20.90;91.60
14985;DHT22;7588;62.368;25.902;2022-08-26T15:40:30;21.00;91.80
14985;DHT22;7588;62.368;25.902;2022-08-26T15:42:56;21.00;92.10
14985;DHT22;7588;62.368;25.902;2022-08-26T15:45:21;20.90;92.90
14985;DHT22;7588;62.368;25.902;2022-08-26T15:47:47;20.70;93.30
14985;DHT22;7588;62.368;25.902;2022-08-26T15:50:13;20.80;94.10
14985;DHT22;7588;62.368;25.902;2022-08-26T15:52:39;20.70;94.50
14985;DHT22;7588;62.368;25.902;2022-08-26T15:55:05;20.70;94.90
14985;DHT22;7588;62.368;25.902;2022-08-26T15:57:31;20.70;96.10
14985;DHT22;7588;62.368;25.902;2022-08-26T15:59:56;20.60;96.40
14985;DHT22;7588;62.368;25.902;2022-08-26T16:02:22;20.50;97.30
14985;DHT22;7588;62.368;25.902;2022-08-26T16:04:48;20.50;97.90
14985;DHT22;7588;62.368;25.902;2022-08-26T16:07:14;20.60;98.60
14985;DHT22;7588;62.368;25.902;2022-08-26T16:09:39;20.60;99.10
14985;DHT22;7588;62.368;25.902;2022-08-26T16:12:05;20.60;99.70
14985;DHT22;7588;62.368;25.902;2022-08-26T16:14:31;20.60;99.90
14985;DHT22;7588;62.368;25.902;2022-08-26T16:16:56;20.60;99.90
14985;DHT22;7588;62.368;25.902;2022-08-26T16:19:23;20.50;99.90
14985;DHT22;7588;62.368;25.902;2022-08-26T16:21:49;20.40;99.90
14985;DHT22;7588;62.368;25.902;2022-08-26T16:24:17;20.20;99.90
14985;DHT22;7588;62.368;25.902;2022-08-26T16:26:45;20.20;99.90
14985;DHT22;7588;62.368;25.902;2022-08-26T16:29:15;20.10;99.90
14985;DHT22;7588;62.368;25.902;2022-08-26T16:31:41;19.90;99.90
14985;DHT22;7588;62.368;25.902;2022-08-26T16:34:08;19.80;99.90
14985;DHT22;7588;62.368;25.902;2022-08-26T16:36:35;19.60;99.90
14985;DHT22;7588;62.368;25.902;2022-08-26T16:39:03;19.50;99.90
14985;DHT22;7588;62.368;25.902;2022-08-26T16:41:30;19.40;99.90
14985;DHT22;7588;62.368;25.902;2022-08-26T16:43:56;19.50;99.90
14985;DHT22;7588;62.368;25.902;2022-08-26T16:46:25;19.40;99.90
14985;DHT22;7588;62.368;25.902;2022-08-26T16:48:53;19.30;99.90
14985;DHT22;7588;62.368;25.902;2022-08-26T16:51:21;19.20;99.90
14985;DHT22;7588;62.368;25.902;2022-08-26T16:53:48;19.20;99.90
14985;DHT22;7588;62.368;25.902;2022-08-26T16:56:17;19.10;99.90
14985;DHT22;7588;62.368;25.902;2022-08-26T16:58:43;19.00;99.90